Time;durP1;ratioP1;P1;durP2;ratioP2;P2;SDS_P1;SDS_P2;PMS_P1;PMS_P2;Temp;Humidity;BMP_temperature;BMP_pressure;BME280_temperature;BME280_humidity;BME280_pressure;Samples;Min_cycle;Max_cycle;Signal;HPM_P1;HPM_P2
2022/01/29 00:00:56;;;;;;;;;21.00;20.00;;;;;;;;4973145;28;45815;-82
2022/01/29 00:03:22;;;;;;;;;20.67;18.67;;;;;;;;4990781;28;45512;-82
2022/01/29 00:05:47;;;;;;;;;21.75;20.00;;;;;;;;4990537;28;46504;-82
2022/01/29 00:08:13;;;;;;;;;26.33;22.00;;;;;;;;4973475;28;45670;-83
2022/01/29 00:10:38;;;;;;;;;18.00;16.67;;;;;;;;4991037;28;45713;-82
2022/01/29 00:13:03;;;;;;;;;24.00;20.50;;;;;;;;4973173;28;45522;-81
2022/01/29 00:15:29;;;;;;;;;20.25;18.00;;;;;;;;4972836;28;47117;-82
2022/01/29 00:17:54;;;;;;;;;19.33;18.33;;;;;;;;4991082;28;45799;-83
2022/01/29 00:20:19;;;;;;;;;21.33;19.00;;;;;;;;4972369;28;45462;-82
2022/01/29 00:22:44;;;;;;;;;13.33;12.00;;;;;;;;4990068;28;45690;-83
2022/01/29 00:25:10;;;;;;;;;20.67;18.00;;;;;;;;4973656;28;47987;-83
2022/01/29 00:27:36;;;;;;;;;20.75;19.25;;;;;;;;4989223;28;45527;-82
2022/01/29 00:30:07;;;;;;;;;18.50;14.00;;;;;;;;4990821;28;45802;-83
2022/01/29 00:32:32;;;;;;;;;16.50;15.00;;;;;;;;5000031;28;45758;-82
2022/01/29 00:34:57;;;;;;;;;22.00;19.00;;;;;;;;4989757;28;46616;-82
2022/01/29 00:37:23;;;;;;;;;18.33;18.00;;;;;;;;4989660;28;45546;-82
2022/01/29 00:39:48;;;;;;;;;16.33;14.00;;;;;;;;4972436;28;45828;-82
2022/01/29 00:42:13;;;;;;;;;16.00;15.33;;;;;;;;4972579;28;45557;-82
2022/01/29 00:44:38;;;;;;;;;14.00;13.33;;;;;;;;4972301;28;46991;-82
2022/01/29 00:47:04;;;;;;;;;19.75;18.25;;;;;;;;4990929;28;45409;-82
2022/01/29 00:49:29;;;;;;;;;18.00;18.00;;;;;;;;4972883;28;45416;-82
2022/01/29 00:51:54;;;;;;;;;14.33;13.33;;;;;;;;4990101;28;45521;-83
2022/01/29 00:54:19;;;;;;;;;19.00;18.00;;;;;;;;4971614;28;47459;-83
2022/01/29 00:56:45;;;;;;;;;17.33;14.33;;;;;;;;4972424;28;45622;-82
2022/01/29 00:59:10;;;;;;;;;19.00;15.00;;;;;;;;4972585;28;45447;-82
2022/01/29 01:01:35;;;;;;;;;17.33;16.00;;;;;;;;4972103;28;45780;-83
2022/01/29 01:04:00;;;;;;;;;15.00;14.33;;;;;;;;4972505;28;48158;-82
2022/01/29 01:06:25;;;;;;;;;18.00;17.00;;;;;;;;4989905;28;45344;-82
2022/01/29 01:08:51;;;;;;;;;14.00;13.67;;;;;;;;4990211;28;45517;-82
2022/01/29 01:11:16;;;;;;;;;15.67;15.00;;;;;;;;4990119;28;45420;-82
2022/01/29 01:13:41;;;;;;;;;17.33;16.33;;;;;;;;4988326;28;47867;-81
2022/01/29 01:16:06;;;;;;;;;18.00;15.00;;;;;;;;4971264;28;45897;-82
2022/01/29 01:18:31;;;;;;;;;20.00;15.00;;;;;;;;4989718;28;45528;-82
2022/01/29 01:20:57;;;;;;;;;19.67;15.00;;;;;;;;4989583;28;45651;-82
2022/01/29 01:23:22;;;;;;;;;20.67;18.67;;;;;;;;4971192;28;48271;-81
2022/01/29 01:25:47;;;;;;;;;18.33;16.67;;;;;;;;4971242;28;45462;-82
2022/01/29 01:28:13;;;;;;;;;21.50;19.75;;;;;;;;4971884;28;45499;-83
2022/01/29 01:30:38;;;;;;;;;18.33;18.33;;;;;;;;4993528;28;45738;-82
2022/01/29 01:33:04;;;;;;;;;22.67;20.00;;;;;;;;4977495;28;46250;-82
2022/01/29 01:35:34;;;;;;;;;11.00;10.75;;;;;;;;4988289;28;45766;-83
2022/01/29 01:38:11;;;;;;;;;17.25;15.25;;;;;;;;4971950;28;45457;-82
2022/01/29 01:40:38;;;;;;;;;13.25;12.50;;;;;;;;4972707;28;45730;-82
2022/01/29 01:43:04;;;;;;;;;18.75;15.50;;;;;;;;4990934;28;46308;-83
2022/01/29 01:45:29;;;;;;;;;18.00;17.33;;;;;;;;4988704;28;45456;-81
2022/01/29 01:47:55;;;;;;;;;14.00;13.50;;;;;;;;4989409;28;45679;-82
2022/01/29 01:50:21;;;;;;;;;19.00;16.00;;;;;;;;4989285;28;45364;-81
2022/01/29 01:52:47;;;;;;;;;19.00;16.25;;;;;;;;4988585;28;46806;-83
2022/01/29 01:55:13;;;;;;;;;21.00;16.25;;;;;;;;4971534;28;45782;-82
2022/01/29 01:57:38;;;;;;;;;15.75;13.00;;;;;;;;4971417;28;45366;-81
2022/01/29 02:00:03;;;;;;;;;20.00;15.00;;;;;;;;4989089;28;45488;-82
2022/01/29 02:02:28;;;;;;;;;17.50;15.25;;;;;;;;4991310;28;46558;-82
2022/01/29 02:04:54;;;;;;;;;20.00;17.67;;;;;;;;4988910;28;45561;-82
2022/01/29 02:07:20;;;;;;;;;19.25;18.50;;;;;;;;4971967;28;45663;-81
2022/01/29 02:09:46;;;;;;;;;17.00;17.00;;;;;;;;4988933;28;45355;-82
2022/01/29 02:12:12;;;;;;;;;24.50;19.75;;;;;;;;4969542;28;46249;-81
2022/01/29 02:14:39;;;;;;;;;14.75;13.75;;;;;;;;4988883;28;45377;-81
2022/01/29 02:17:04;;;;;;;;;14.00;13.00;;;;;;;;4971739;28;45591;-82
2022/01/29 02:19:30;;;;;;;;;18.25;17.50;;;;;;;;4971185;28;45480;-82
2022/01/29 02:21:56;;;;;;;;;19.00;16.00;;;;;;;;4970733;28;47081;-81
2022/01/29 02:24:21;;;;;;;;;17.25;15.25;;;;;;;;4988897;28;45568;-82
2022/01/29 02:26:46;;;;;;;;;19.67;16.67;;;;;;;;4972827;28;45725;-82
2022/01/29 02:29:11;;;;;;;;;17.00;15.67;;;;;;;;4974675;28;45800;-82
2022/01/29 02:31:57;;;;;;;;;19.67;16.33;;;;;;;;4998974;28;45537;-82
2022/01/29 02:34:23;;;;;;;;;18.50;17.75;;;;;;;;4973439;28;45945;-82
2022/01/29 02:36:49;;;;;;;;;17.50;15.25;;;;;;;;4991415;28;45751;-81
2022/01/29 02:39:17;;;;;;;;;16.75;16.50;;;;;;;;4992658;28;45878;-81
2022/01/29 02:41:44;;;;;;;;;19.50;17.25;;;;;;;;4991972;28;46601;-83
2022/01/29 02:44:10;;;;;;;;;16.75;14.50;;;;;;;;4992707;28;45408;-83
2022/01/29 02:49:06;;;;;;;;;15.75;14.50;;;;;;;;4993601;28;45578;-81
2022/01/29 02:51:32;;;;;;;;;20.67;16.67;;;;;;;;4991099;28;46714;-82
2022/01/29 02:53:57;;;;;;;;;23.33;20.00;;;;;;;;4991566;28;45458;-82
2022/01/29 02:56:22;;;;;;;;;15.00;13.00;;;;;;;;4991322;28;45607;-81
2022/01/29 02:58:47;;;;;;;;;14.33;14.33;;;;;;;;4991877;28;45556;-82
2022/01/29 03:01:13;;;;;;;;;18.33;13.33;;;;;;;;4973958;28;47273;-82
2022/01/29 03:03:38;;;;;;;;;17.00;16.50;;;;;;;;4990976;28;45575;-82
2022/01/29 03:06:08;;;;;;;;;17.00;14.00;;;;;;;;4991635;28;45571;-82
2022/01/29 03:08:33;;;;;;;;;20.00;18.75;;;;;;;;4973683;28;45650;-82
2022/01/29 03:10:58;;;;;;;;;19.00;17.33;;;;;;;;4991092;28;45661;-82
2022/01/29 03:13:23;;;;;;;;;19.00;19.00;;;;;;;;4991180;28;45938;-83
2022/01/29 03:15:48;;;;;;;;;16.00;14.33;;;;;;;;4991578;28;45616;-82
2022/01/29 03:18:14;;;;;;;;;21.67;19.00;;;;;;;;4991470;28;45629;-82
2022/01/29 03:20:39;;;;;;;;;20.00;18.00;;;;;;;;4972759;28;47733;-83
2022/01/29 03:23:04;;;;;;;;;13.00;11.33;;;;;;;;4991890;28;45754;-82
2022/01/29 03:25:29;;;;;;;;;22.67;18.00;;;;;;;;4973533;28;45397;-83
2022/01/29 03:27:54;;;;;;;;;23.67;20.33;;;;;;;;4991053;28;45558;-81
2022/01/29 03:30:20;;;;;;;;;17.00;14.33;;;;;;;;4992329;28;47012;-82
2022/01/29 03:32:45;;;;;;;;;16.67;16.33;;;;;;;;4974328;28;46203;-82
2022/01/29 03:35:11;;;;;;;;;17.33;17.33;;;;;;;;4991087;28;45860;-82
2022/01/29 03:37:36;;;;;;;;;19.50;18.50;;;;;;;;4971509;28;45516;-81
2022/01/29 03:40:04;;;;;;;;;19.33;18.00;;;;;;;;4973242;28;48193;-82
2022/01/29 03:42:33;;;;;;;;;21.75;19.25;;;;;;;;4973417;28;45547;-82
2022/01/29 03:44:59;;;;;;;;;21.75;21.25;;;;;;;;4991439;28;45468;-82
2022/01/29 03:47:24;;;;;;;;;21.00;18.00;;;;;;;;4973049;28;45491;-82
2022/01/29 03:49:50;;;;;;;;;17.67;15.33;;;;;;;;4972876;28;48275;-82
2022/01/29 03:52:15;;;;;;;;;20.75;19.25;;;;;;;;4978839;28;45878;-82
2022/01/29 03:54:40;;;;;;;;;23.67;20.00;;;;;;;;4973510;28;45863;-81
2022/01/29 03:57:05;;;;;;;;;21.33;20.33;;;;;;;;4973497;28;45417;-82
2022/01/29 03:59:30;;;;;;;;;18.00;17.33;;;;;;;;4991986;28;45414;-82
2022/01/29 04:01:56;;;;;;;;;21.33;20.67;;;;;;;;4972265;28;45765;-83
2022/01/29 04:04:21;;;;;;;;;17.33;15.67;;;;;;;;4974557;28;45457;-82
2022/01/29 04:06:46;;;;;;;;;19.33;17.67;;;;;;;;4990511;28;46783;-83
2022/01/29 04:09:12;;;;;;;;;17.67;16.67;;;;;;;;4972634;28;48132;-82
2022/01/29 04:11:38;;;;;;;;;23.25;20.75;;;;;;;;4972471;28;45527;-82
2022/01/29 04:14:04;;;;;;;;;20.50;16.50;;;;;;;;4972945;28;45730;-82
2022/01/29 04:16:29;;;;;;;;;16.50;14.00;;;;;;;;4972921;28;45396;-83
2022/01/29 04:18:54;;;;;;;;;21.33;18.67;;;;;;;;4990670;28;45575;-82
2022/01/29 04:21:20;;;;;;;;;22.00;18.00;;;;;;;;4990224;28;45703;-82
2022/01/29 04:23:45;;;;;;;;;16.00;15.33;;;;;;;;4989751;28;45494;-81
2022/01/29 04:26:10;;;;;;;;;17.67;17.67;;;;;;;;4990686;28;45627;-83
2022/01/29 04:28:40;;;;;;;;;21.00;19.00;;;;;;;;4972078;28;48042;-83
2022/01/29 04:31:18;;;;;;;;;18.50;17.00;;;;;;;;4996417;28;45642;-82
2022/01/29 04:33:44;;;;;;;;;22.25;18.75;;;;;;;;4972751;28;45399;-82
2022/01/29 04:36:09;;;;;;;;;20.25;19.25;;;;;;;;4989797;28;45462;-82
2022/01/29 04:38:34;;;;;;;;;22.00;20.00;;;;;;;;4991102;28;46464;-82
2022/01/29 04:41:03;;;;;;;;;18.00;16.25;;;;;;;;4990417;28;45716;-82
2022/01/29 04:43:28;;;;;;;;;18.75;18.00;;;;;;;;4981417;28;45633;-81
2022/01/29 04:45:54;;;;;;;;;19.33;18.33;;;;;;;;4994962;28;45372;-82
2022/01/29 04:48:19;;;;;;;;;18.67;18.67;;;;;;;;4979655;28;47445;-81
2022/01/29 04:50:44;;;;;;;;;20.00;18.00;;;;;;;;4973064;28;45958;-81
2022/01/29 04:53:09;;;;;;;;;26.00;22.33;;;;;;;;4972917;28;45823;-82
2022/01/29 04:55:36;;;;;;;;;19.00;19.00;;;;;;;;4989539;28;45460;-82
2022/01/29 04:58:01;;;;;;;;;17.75;15.00;;;;;;;;4992284;28;46927;-82
2022/01/29 05:00:27;;;;;;;;;24.00;18.33;;;;;;;;4973778;28;45887;-81
2022/01/29 05:02:53;;;;;;;;;20.33;19.00;;;;;;;;4972908;28;45526;-82
2022/01/29 05:05:19;;;;;;;;;19.50;19.25;;;;;;;;4974901;28;45825;-82
2022/01/29 05:07:44;;;;;;;;;23.75;21.00;;;;;;;;4994385;28;45844;-82
2022/01/29 05:10:10;;;;;;;;;18.75;17.50;;;;;;;;4989659;28;45743;-81
2022/01/29 05:12:50;;;;;;;;;20.00;19.50;;;;;;;;4972129;28;45355;-83
2022/01/29 05:28:41;;;;;;;;;18.75;17.75;;;;;;;;4989856;28;45543;-82
2022/01/29 05:31:06;;;;;;;;;23.00;18.33;;;;;;;;4999679;28;45467;-81
2022/01/29 05:33:32;;;;;;;;;18.33;18.00;;;;;;;;4991642;28;45329;-82
2022/01/29 05:35:57;;;;;;;;;19.33;18.00;;;;;;;;5009936;28;45461;-82
2022/01/29 05:38:22;;;;;;;;;18.67;18.67;;;;;;;;4997030;28;46180;-82
2022/01/29 05:40:47;;;;;;;;;20.67;19.67;;;;;;;;4989453;28;45420;-82
2022/01/29 05:43:13;;;;;;;;;16.00;14.33;;;;;;;;4972679;28;45879;-83
2022/01/29 05:45:38;;;;;;;;;20.75;19.50;;;;;;;;4971660;28;45529;-83
2022/01/29 05:48:03;;;;;;;;;22.33;19.00;;;;;;;;4994432;28;45391;-83
2022/01/29 05:50:28;;;;;;;;;24.25;22.25;;;;;;;;4988982;28;45682;-82
2022/01/29 05:52:54;;;;;;;;;21.00;18.67;;;;;;;;4988936;28;45727;-82
2022/01/29 05:55:19;;;;;;;;;21.00;18.67;;;;;;;;4992195;28;45415;-82
2022/01/29 05:57:44;;;;;;;;;19.33;18.67;;;;;;;;4972587;28;47444;-81
2022/01/29 06:00:10;;;;;;;;;19.50;16.75;;;;;;;;4991126;28;45494;-81
2022/01/29 06:02:35;;;;;;;;;22.00;19.25;;;;;;;;4976323;28;45590;-83
2022/01/29 06:05:00;;;;;;;;;20.67;20.00;;;;;;;;4994332;28;45754;-83
2022/01/29 06:07:26;;;;;;;;;19.00;16.00;;;;;;;;4975990;28;47173;-82
2022/01/29 06:09:51;;;;;;;;;26.00;22.33;;;;;;;;4993199;28;46023;-82
2022/01/29 06:12:16;;;;;;;;;14.33;14.33;;;;;;;;4993108;28;45409;-82
2022/01/29 06:14:41;;;;;;;;;21.67;19.33;;;;;;;;4976712;28;45657;-83
2022/01/29 06:17:06;;;;;;;;;20.33;20.00;;;;;;;;4993015;28;45464;-82
2022/01/29 06:19:32;;;;;;;;;20.67;18.33;;;;;;;;4992905;28;45423;-82
2022/01/29 06:21:57;;;;;;;;;22.00;20.50;;;;;;;;4992427;28;45651;-82
2022/01/29 06:24:22;;;;;;;;;19.67;16.67;;;;;;;;4974371;28;45718;-82
2022/01/29 06:26:48;;;;;;;;;18.50;18.00;;;;;;;;4991921;28;45898;-83
2022/01/29 06:29:13;;;;;;;;;19.50;17.50;;;;;;;;4992660;28;45520;-82
2022/01/29 06:31:38;;;;;;;;;18.00;17.00;;;;;;;;5006093;28;45723;-81
2022/01/29 06:34:03;;;;;;;;;18.00;16.33;;;;;;;;4994939;28;45676;-82
2022/01/29 06:36:29;;;;;;;;;20.67;16.67;;;;;;;;5014728;28;45743;-82
2022/01/29 06:38:54;;;;;;;;;22.00;19.33;;;;;;;;4979442;28;45862;-83
2022/01/29 06:41:19;;;;;;;;;15.33;14.00;;;;;;;;4993608;28;45389;-83
2022/01/29 06:43:44;;;;;;;;;20.33;19.33;;;;;;;;4997483;28;45839;-82
2022/01/29 06:46:09;;;;;;;;;16.67;16.00;;;;;;;;4968919;28;47395;-82
2022/01/29 06:48:35;;;;;;;;;22.00;18.33;;;;;;;;5009865;28;45772;-82
2022/01/29 06:51:00;;;;;;;;;16.67;15.33;;;;;;;;4999421;28;45567;-83
2022/01/29 06:53:25;;;;;;;;;16.67;15.00;;;;;;;;5013990;28;45097;-83
2022/01/29 06:55:50;;;;;;;;;18.00;16.00;;;;;;;;5009646;28;45767;-82
2022/01/29 06:58:15;;;;;;;;;18.00;17.33;;;;;;;;4984232;28;45600;-81
2022/01/29 07:00:41;;;;;;;;;20.00;16.67;;;;;;;;4969969;28;45827;-81
2022/01/29 07:03:06;;;;;;;;;17.33;16.00;;;;;;;;4978350;28;45561;-82
2022/01/29 07:05:31;;;;;;;;;20.00;17.00;;;;;;;;4974865;28;47348;-81
2022/01/29 07:07:56;;;;;;;;;14.67;14.00;;;;;;;;4991773;28;45306;-81
2022/01/29 07:10:21;;;;;;;;;15.33;14.67;;;;;;;;4991821;28;45733;-81
2022/01/29 07:12:47;;;;;;;;;17.67;15.00;;;;;;;;4986192;28;45641;-81
2022/01/29 07:15:12;;;;;;;;;20.67;14.33;;;;;;;;4986566;28;46220;-81
2022/01/29 07:17:37;;;;;;;;;13.00;13.00;;;;;;;;4990641;28;45749;-81
2022/01/29 07:20:03;;;;;;;;;17.25;17.25;;;;;;;;4992271;28;45670;-81
2022/01/29 07:22:28;;;;;;;;;20.00;17.50;;;;;;;;4975990;28;45833;-80
2022/01/29 07:24:54;;;;;;;;;25.00;20.00;;;;;;;;4990994;28;46737;-81
2022/01/29 07:27:19;;;;;;;;;19.00;17.33;;;;;;;;4992794;28;45397;-81
2022/01/29 07:29:44;;;;;;;;;15.67;15.33;;;;;;;;5004161;28;45767;-81
2022/01/29 07:32:10;;;;;;;;;19.67;17.00;;;;;;;;5011614;28;45391;-82
2022/01/29 07:34:35;;;;;;;;;18.50;15.75;;;;;;;;4995194;28;46294;-81
2022/01/29 07:37:00;;;;;;;;;18.33;16.00;;;;;;;;4993896;28;45457;-82
2022/01/29 07:39:26;;;;;;;;;15.75;15.00;;;;;;;;4979401;28;45739;-81
2022/01/29 07:41:52;;;;;;;;;19.75;18.00;;;;;;;;5005843;28;45420;-81
2022/01/29 07:44:18;;;;;;;;;16.50;13.75;;;;;;;;5002761;28;46040;-81
2022/01/29 07:46:43;;;;;;;;;16.00;15.00;;;;;;;;5004345;28;45475;-82
2022/01/29 07:49:09;;;;;;;;;15.50;14.00;;;;;;;;4996463;28;45834;-81
2022/01/29 07:51:34;;;;;;;;;15.50;14.75;;;;;;;;4990617;28;45839;-82
2022/01/29 07:54:00;;;;;;;;;20.00;19.25;;;;;;;;4990885;28;45930;-82
2022/01/29 07:56:25;;;;;;;;;17.00;15.00;;;;;;;;4991364;28;45376;-81
2022/01/29 07:58:50;;;;;;;;;14.00;13.00;;;;;;;;4992620;28;45893;-80
2022/01/29 08:01:16;;;;;;;;;15.00;15.00;;;;;;;;4998361;28;45353;-81
2022/01/29 08:03:42;;;;;;;;;12.50;11.50;;;;;;;;5000357;28;45789;-81
2022/01/29 08:06:07;;;;;;;;;15.00;13.25;;;;;;;;4998052;28;45379;-82
2022/01/29 08:08:32;;;;;;;;;13.75;13.00;;;;;;;;4986568;28;45324;-82
2022/01/29 08:10:57;;;;;;;;;14.67;11.33;;;;;;;;5008263;28;45285;-80
2022/01/29 08:13:23;;;;;;;;;13.00;13.00;;;;;;;;4984398;28;47086;-81
2022/01/29 08:15:48;;;;;;;;;13.33;13.00;;;;;;;;4998543;28;45805;-82
2022/01/29 08:18:13;;;;;;;;;12.67;12.33;;;;;;;;4972604;28;45446;-84
2022/01/29 08:20:39;;;;;;;;;11.75;10.50;;;;;;;;4991566;28;45498;-82
2022/01/29 08:23:08;;;;;;;;;10.50;9.00;;;;;;;;4993871;28;45965;-82
2022/01/29 08:25:34;;;;;;;;;9.50;8.50;;;;;;;;4994218;28;45257;-81
2022/01/29 08:27:59;;;;;;;;;8.25;7.00;;;;;;;;4992953;28;45600;-82
2022/01/29 08:30:24;;;;;;;;;8.33;8.00;;;;;;;;4974953;28;45415;-83
2022/01/29 08:32:49;;;;;;;;;7.67;7.00;;;;;;;;4985035;28;46223;-83
2022/01/29 08:35:15;;;;;;;;;8.00;7.67;;;;;;;;4991186;28;45452;-83
2022/01/29 08:37:41;;;;;;;;;8.00;8.00;;;;;;;;4972312;28;45511;-83
2022/01/29 08:40:07;;;;;;;;;8.00;7.25;;;;;;;;4990513;28;45607;-83
2022/01/29 08:42:32;;;;;;;;;9.75;9.00;;;;;;;;4972057;28;48105;-83
2022/01/29 08:44:57;;;;;;;;;9.00;7.00;;;;;;;;4972367;28;45639;-82
2022/01/29 08:47:23;;;;;;;;;5.33;4.67;;;;;;;;4972610;28;45553;-83
2022/01/29 08:49:48;;;;;;;;;5.00;5.00;;;;;;;;4989972;28;45395;-83
2022/01/29 08:52:13;;;;;;;;;7.33;6.33;;;;;;;;4989493;28;45650;-83
2022/01/29 08:54:38;;;;;;;;;6.33;5.00;;;;;;;;4972200;28;45438;-83
2022/01/29 08:57:03;;;;;;;;;4.67;4.67;;;;;;;;4990528;28;45392;-83
2022/01/29 08:59:29;;;;;;;;;7.00;4.00;;;;;;;;4971706;28;45837;-82
2022/01/29 09:01:54;;;;;;;;;5.00;4.00;;;;;;;;4989981;28;46587;-82
2022/01/29 09:04:19;;;;;;;;;8.00;5.00;;;;;;;;4990477;28;45478;-83
2022/01/29 09:06:44;;;;;;;;;4.00;4.00;;;;;;;;4989369;28;45265;-82
2022/01/29 09:09:10;;;;;;;;;5.00;5.00;;;;;;;;4972441;28;45685;-83
2022/01/29 09:11:35;;;;;;;;;6.00;5.00;;;;;;;;4989749;28;45635;-82
2022/01/29 09:14:00;;;;;;;;;5.50;5.50;;;;;;;;4989802;28;45334;-82
2022/01/29 09:16:25;;;;;;;;;5.00;4.00;;;;;;;;4972165;28;45706;-83
2022/01/29 09:18:51;;;;;;;;;4.33;4.00;;;;;;;;4972122;28;45704;-82
2022/01/29 09:21:16;;;;;;;;;5.50;4.50;;;;;;;;4989605;28;46315;-83
2022/01/29 09:23:41;;;;;;;;;4.25;4.25;;;;;;;;4987616;28;45183;-84
2022/01/29 09:26:07;;;;;;;;;7.00;4.00;;;;;;;;5005373;28;45154;-82
2022/01/29 09:28:32;;;;;;;;;5.67;5.67;;;;;;;;5008102;28;45009;-83
2022/01/29 09:30:57;;;;;;;;;4.00;4.00;;;;;;;;4999250;28;45833;-83
2022/01/29 09:33:22;;;;;;;;;5.25;5.00;;;;;;;;4985499;28;45581;-82
2022/01/29 09:35:47;;;;;;;;;5.67;5.67;;;;;;;;4973869;28;45806;-83
2022/01/29 09:38:13;;;;;;;;;8.00;7.00;;;;;;;;4996089;28;45640;-83
2022/01/29 09:40:40;;;;;;;;;7.33;7.00;;;;;;;;4991371;28;46383;-82
2022/01/29 09:43:08;;;;;;;;;7.25;7.00;;;;;;;;5008069;28;45441;-82
2022/01/29 09:45:33;;;;;;;;;5.00;5.00;;;;;;;;4982565;28;45422;-83
2022/01/29 09:48:02;;;;;;;;;5.25;5.00;;;;;;;;4989177;28;45237;-85
2022/01/29 09:50:28;;;;;;;;;8.50;8.00;;;;;;;;4996547;28;45985;-84
2022/01/29 09:52:54;;;;;;;;;5.00;5.00;;;;;;;;5002492;28;45312;-83
2022/01/29 09:55:22;;;;;;;;;4.67;4.67;;;;;;;;4997438;28;45293;-82
2022/01/29 09:57:47;;;;;;;;;8.50;6.75;;;;;;;;4977517;28;45405;-82
2022/01/29 10:00:13;;;;;;;;;9.33;6.33;;;;;;;;4993088;28;45484;-82
2022/01/29 10:02:38;;;;;;;;;8.50;6.25;;;;;;;;4992504;28;45574;-83
2022/01/29 10:05:04;;;;;;;;;9.67;8.33;;;;;;;;4992928;28;45501;-82
2022/01/29 10:07:31;;;;;;;;;44.50;37.25;;;;;;;;4974161;28;45433;-83
2022/01/29 10:09:57;;;;;;;;;8.00;8.00;;;;;;;;4992278;28;46638;-83
2022/01/29 10:12:30;;;;;;;;;10.75;10.00;;;;;;;;4991703;28;46069;-84
2022/01/29 10:15:03;;;;;;;;;104.50;99.00;;;;;;;;4992424;28;45507;-83
2022/01/29 10:17:39;;;;;;;;;17.00;11.50;;;;;;;;4992215;28;45385;-82
2022/01/29 10:20:19;;;;;;;;;58.50;47.50;;;;;;;;4974454;28;46054;-84
2022/01/29 10:22:49;;;;;;;;;12.25;11.50;;;;;;;;4992012;28;45871;-83
2022/01/29 10:25:22;;;;;;;;;8.75;8.25;;;;;;;;4975013;28;45493;-83
2022/01/29 10:28:06;;;;;;;;;19.75;19.50;;;;;;;;4991878;28;45542;-83
2022/01/29 10:30:32;;;;;;;;;9.75;8.25;;;;;;;;4973982;28;47410;-82
2022/01/29 10:33:15;;;;;;;;;46.75;41.50;;;;;;;;4992372;28;45590;-82
2022/01/29 10:35:43;;;;;;;;;28.50;27.00;;;;;;;;4991695;28;45673;-83
2022/01/29 10:38:09;;;;;;;;;66.00;53.75;;;;;;;;4993490;28;45484;-82
2022/01/29 10:40:34;;;;;;;;;15.33;13.33;;;;;;;;4996537;28;45534;-84
2022/01/29 10:43:04;;;;;;;;;6.50;6.50;;;;;;;;4973190;28;45495;-85
2022/01/29 10:45:34;;;;;;;;;9.50;7.50;;;;;;;;4977409;28;45420;-80
2022/01/29 10:48:00;;;;;;;;;8.00;7.75;;;;;;;;4991179;28;45470;-84
2022/01/29 10:50:25;;;;;;;;;72.00;58.00;;;;;;;;4989734;28;46173;-86
2022/01/29 10:52:51;;;;;;;;;44.25;37.25;;;;;;;;4986252;28;45938;-87
2022/01/29 10:55:16;;;;;;;;;13.00;10.00;;;;;;;;4997989;28;45744;-82
2022/01/29 10:57:41;;;;;;;;;6.00;6.00;;;;;;;;4988176;28;45150;-82
2022/01/29 11:00:08;;;;;;;;;9.00;6.67;;;;;;;;5005308;28;45220;-82
2022/01/29 11:02:34;;;;;;;;;8.00;6.50;;;;;;;;4967995;28;45599;-84
2022/01/29 11:05:02;;;;;;;;;29.33;27.00;;;;;;;;4979533;28;45643;-81
2022/01/29 11:07:29;;;;;;;;;9.00;8.50;;;;;;;;4993555;28;45513;-82
2022/01/29 11:09:55;;;;;;;;;51.50;44.75;;;;;;;;4990946;28;45841;-82
2022/01/29 11:12:21;;;;;;;;;8.75;6.75;;;;;;;;4995275;28;45470;-87
2022/01/29 11:14:47;;;;;;;;;6.50;5.00;;;;;;;;5001303;28;44833;-86
2022/01/29 11:17:12;;;;;;;;;3.75;3.75;;;;;;;;4970075;28;45401;-84
2022/01/29 11:19:39;;;;;;;;;30.50;28.00;;;;;;;;4986095;28;45549;-85
2022/01/29 11:22:05;;;;;;;;;88.25;79.25;;;;;;;;4978720;28;45535;-81
2022/01/29 11:24:32;;;;;;;;;91.75;81.00;;;;;;;;4986199;28;45224;-83
2022/01/29 11:26:57;;;;;;;;;64.50;52.00;;;;;;;;5004246;28;45136;-81
2022/01/29 11:29:25;;;;;;;;;51.00;38.67;;;;;;;;5003631;28;45564;-85
2022/01/29 11:32:09;;;;;;;;;202.25;191.50;;;;;;;;4983286;28;45553;-86
2022/01/29 11:34:54;;;;;;;;;21.00;18.00;;;;;;;;5004979;28;45482;-84
2022/01/29 11:37:35;;;;;;;;;42.25;38.00;;;;;;;;4985094;28;45510;-84
2022/01/29 11:40:20;;;;;;;;;22.50;18.00;;;;;;;;5003563;28;45367;-83
2022/01/29 11:42:58;;;;;;;;;13.75;13.00;;;;;;;;4997472;28;46774;-81
2022/01/29 11:45:30;;;;;;;;;8.25;8.00;;;;;;;;4990910;28;45003;-82
2022/01/29 11:47:55;;;;;;;;;7.00;6.00;;;;;;;;4987380;28;45378;-82
2022/01/29 11:50:26;;;;;;;;;23.67;23.33;;;;;;;;5001292;28;45520;-86
2022/01/29 11:53:03;;;;;;;;;26.00;25.50;;;;;;;;4982489;28;45482;-85
2022/01/29 11:55:51;;;;;;;;;4.50;4.00;;;;;;;;4993679;28;45783;-87
2022/01/29 11:58:17;;;;;;;;;5.00;4.00;;;;;;;;4996024;28;45651;-86
2022/01/29 12:01:01;;;;;;;;;40.75;36.00;;;;;;;;5000183;28;45920;-84
2022/01/29 12:03:44;;;;;;;;;62.00;50.50;;;;;;;;4998579;28;45771;-86
2022/01/29 12:06:13;;;;;;;;;49.50;42.00;;;;;;;;4993579;28;45561;-82
2022/01/29 12:09:01;;;;;;;;;40.25;36.50;;;;;;;;4992534;28;45506;-84
2022/01/29 12:11:26;;;;;;;;;4.00;4.00;;;;;;;;4990616;28;46214;-88
2022/01/29 12:14:10;;;;;;;;;5.67;5.67;;;;;;;;5003494;28;45236;-82
2022/01/29 12:17:02;;;;;;;;;7.75;7.50;;;;;;;;4973645;28;45637;-81
2022/01/29 12:19:41;;;;;;;;;6.00;5.00;;;;;;;;4975330;28;45806;-87
2022/01/29 12:22:17;;;;;;;;;28.50;27.00;;;;;;;;4972550;28;45477;-82
2022/01/29 12:25:08;;;;;;;;;12.00;11.25;;;;;;;;4973600;28;45535;-81
2022/01/29 12:27:40;;;;;;;;;57.50;48.25;;;;;;;;4964087;28;45574;-82
2022/01/29 12:30:06;;;;;;;;;6.00;6.00;;;;;;;;4992642;28;45470;-82
2022/01/29 12:32:31;;;;;;;;;9.50;8.50;;;;;;;;4990762;28;45388;-83
2022/01/29 12:34:58;;;;;;;;;32.67;31.67;;;;;;;;5010868;28;45144;-87
2022/01/29 12:37:23;;;;;;;;;12.00;11.50;;;;;;;;5010349;28;45224;-83
2022/01/29 12:39:49;;;;;;;;;6.67;6.00;;;;;;;;5009279;28;45404;-85
2022/01/29 12:44:52;;;;;;;;;12.00;11.00;;;;;;;;5010881;28;45225;-85
2022/01/29 12:47:24;;;;;;;;;16.75;15.50;;;;;;;;4992746;28;45055;-90
2022/01/29 12:49:49;;;;;;;;;9.25;8.50;;;;;;;;4988424;28;45307;-89
2022/01/29 12:52:15;;;;;;;;;57.67;46.67;;;;;;;;5010050;28;45952;-86
2022/01/29 12:54:40;;;;;;;;;8.75;7.50;;;;;;;;5009039;28;45167;-86
2022/01/29 12:57:06;;;;;;;;;9.50;9.50;;;;;;;;5010875;28;45352;-86
2022/01/29 12:59:34;;;;;;;;;6.00;5.25;;;;;;;;4993469;28;45216;-84
2022/01/29 13:02:02;;;;;;;;;8.25;6.75;;;;;;;;4992350;28;47351;-85
2022/01/29 13:04:28;;;;;;;;;7.00;6.00;;;;;;;;4992487;28;45672;-84
2022/01/29 13:06:59;;;;;;;;;5.50;5.50;;;;;;;;5010948;28;45219;-86
2022/01/29 13:09:27;;;;;;;;;10.75;9.75;;;;;;;;4991563;28;45152;-85
2022/01/29 13:11:57;;;;;;;;;5.00;5.00;;;;;;;;4983087;28;47071;-89
2022/01/29 13:14:23;;;;;;;;;4.00;4.00;;;;;;;;4980736;28;45242;-91
2022/01/29 13:16:50;;;;;;;;;13.00;11.75;;;;;;;;4961501;28;46134;-85
2022/01/29 13:19:15;;;;;;;;;4.00;4.00;;;;;;;;4978717;28;46023;-87
2022/01/29 13:21:41;;;;;;;;;4.50;4.00;;;;;;;;4973437;28;46902;-87
2022/01/29 13:24:25;;;;;;;;;24.50;22.50;;;;;;;;4979892;28;45598;-86
2022/01/29 13:27:09;;;;;;;;;5.75;5.25;;;;;;;;5001139;28;45230;-93
2022/01/29 13:29:36;;;;;;;;;11.25;11.00;;;;;;;;4971959;28;46757;-86
2022/01/29 13:32:08;;;;;;;;;12.75;11.50;;;;;;;;4970520;28;48118;-84
2022/01/29 13:34:36;;;;;;;;;4.50;4.50;;;;;;;;4988220;28;45763;-92
2022/01/29 13:37:02;;;;;;;;;32.75;31.50;;;;;;;;4967539;28;45521;-86
2022/01/29 13:39:28;;;;;;;;;97.25;86.75;;;;;;;;4975661;28;45731;-86
2022/01/29 13:42:08;;;;;;;;;11.75;11.75;;;;;;;;4976272;28;47877;-85
2022/01/29 13:44:33;;;;;;;;;4.75;4.25;;;;;;;;4983167;28;46081;-85
2022/01/29 13:47:06;;;;;;;;;48.00;40.33;;;;;;;;5001182;28;45823;-86
2022/01/29 13:49:31;;;;;;;;;5.25;5.25;;;;;;;;5000425;28;45594;-87
2022/01/29 13:51:57;;;;;;;;;31.67;27.67;;;;;;;;4976841;28;48157;-86
2022/01/29 13:54:22;;;;;;;;;55.25;45.75;;;;;;;;4993742;28;45447;-89
2022/01/29 13:56:49;;;;;;;;;61.50;50.00;;;;;;;;4977966;28;45822;-87
2022/01/29 13:59:16;;;;;;;;;5.00;5.00;;;;;;;;4996156;28;45699;-89
2022/01/29 14:01:57;;;;;;;;;22.00;18.25;;;;;;;;5004527;28;45480;-86
2022/01/29 14:04:29;;;;;;;;;56.50;45.50;;;;;;;;4987044;28;45641;-86
2022/01/29 14:06:56;;;;;;;;;34.75;30.50;;;;;;;;4975243;28;45477;-87
2022/01/29 14:09:34;;;;;;;;;43.75;37.25;;;;;;;;4977906;28;45616;-88
2022/01/29 14:12:00;;;;;;;;;8.50;8.50;;;;;;;;4977222;28;47689;-93
2022/01/29 14:14:30;;;;;;;;;5.75;5.00;;;;;;;;4993992;28;45428;-92
2022/01/29 14:16:56;;;;;;;;;22.25;19.50;;;;;;;;4992585;28;45542;-91
2022/01/29 14:19:22;;;;;;;;;12.00;10.25;;;;;;;;4975350;28;45307;-90
2022/01/29 14:21:50;;;;;;;;;6.25;5.75;;;;;;;;4993005;28;46407;-88
2022/01/29 14:24:16;;;;;;;;;27.25;26.50;;;;;;;;4995029;28;45482;-89
2022/01/29 14:26:41;;;;;;;;;29.50;28.25;;;;;;;;4977922;28;45838;-87
2022/01/29 14:29:07;;;;;;;;;5.25;4.75;;;;;;;;4978646;28;45588;-87
2022/01/29 14:31:32;;;;;;;;;19.75;19.00;;;;;;;;4994926;28;46438;-84
2022/01/29 14:33:58;;;;;;;;;5.00;5.00;;;;;;;;4978421;28;45794;-86
2022/01/29 14:36:24;;;;;;;;;11.75;11.75;;;;;;;;4995321;28;45584;-93
2022/01/29 14:38:49;;;;;;;;;4.00;4.00;;;;;;;;4995217;28;45517;-80
2022/01/29 14:41:14;;;;;;;;;22.00;20.67;;;;;;;;4996396;28;45619;-83